This is the latest recevied weather packets stored in our database for station/object WX5RP. If no packets are shown the sender has not sent any weather packets the latest 10 day(s).
| Time | Temp. | Humidity | Pressure | Rain* | Wind** | Luminosity | Snow |
|---|---|---|---|---|---|---|---|
| 1787643617 | 11.11° C | 55% | 1020.9 hPa | 0 mm | - | 0 W/m² | - |
| 1787643017 | 11.11° C | 51% | 1021.1 hPa | 0 mm | - | 0 W/m² | - |
| 1787642417 | 11.67° C | 53% | 1020.8 hPa | 0 mm | - | 0 W/m² | - |
| 1787641817 | 11.67° C | 55% | 1020.5 hPa | 0 mm | - | 0 W/m² | - |
| 1787641217 | 12.78° C | 52% | 1020.8 hPa | 0 mm | - | 0 W/m² | - |
| 1787640616 | 13.33° C | 49% | 1020.1 hPa | 0 mm | - | 0 W/m² | - |
| 1787640016 | 13.33° C | 50% | 1019.9 hPa | 0 mm | - | 0 W/m² | - |
| 1787639416 | 14.44° C | 46% | 1019.9 hPa | 0 mm | - | 0 W/m² | - |
| 1787638816 | 16.67° C | 40% | 1019.8 hPa | 0 mm | - | 0 W/m² | - |
| 1787638216 | 16.67° C | 35% | 1020.5 hPa | 0 mm | - | 0 W/m² | - |
| 1787637616 | 16.67° C | 37% | 1020.6 hPa | 0 mm | - | 0 W/m² | - |
| 1787637016 | 17.22° C | 37% | 1020.3 hPa | 0 mm | - | 0 W/m² | - |
| 1787636416 | 17.78° C | 32% | 1020.3 hPa | 0 mm | - | 0 W/m² | - |
| 1787635817 | 17.22° C | 32% | 1019.7 hPa | 0 mm | - | 0 W/m² | - |
| 1787635216 | 17.78° C | 32% | 1019.4 hPa | 0 mm | - | 0 W/m² | - |
| 1787634616 | 15.56° C | 34% | 1020.3 hPa | 0 mm | - | 0 W/m² | - |
| 1787634016 | 14.44° C | 44% | 1019.8 hPa | 0 mm | - | 0 W/m² | - |
| 1787633416 | 15.56° C | 39% | 1019.7 hPa | 0 mm | - | 0 W/m² | - |
| 1787632816 | 16.11° C | 36% | 1019.7 hPa | 0 mm | - | 0 W/m² | - |
| 1787632216 | 16.11° C | 37% | 1019.4 hPa | 0 mm | - | 0 W/m² | - |
| 1787631616 | 16.11° C | 39% | 1019 hPa | 0 mm | - | 0 W/m² | - |
| 1787631015 | 15.56° C | 42% | 1019.5 hPa | 0 mm | - | 0 W/m² | - |
| 1787630416 | 16.11° C | 45% | 1019.6 hPa | 0 mm | - | 0 W/m² | - |
| 1787629816 | 20.56° C | 37% | 1019.1 hPa | 0 mm | - | 0 W/m² | - |
| 1787629216 | 21.67° C | 22% | 1018.3 hPa | 0 mm | - | 0 W/m² | - |
* Rain latest hour (hover to see other rain measurements)
** Current wind speed in m/s (hover to see current wind gust speed)